sensor_id;sensor_type;location;lat;lon;timestamp;pressure;altitude;pressure_sealevel;temperature;humidity
79617;BME280;69097;52.132;5.422;2024-02-26T00:00:29;100178.91;;;5.42;94.51
79617;BME280;69097;52.132;5.422;2024-02-26T00:02:56;100196.00;;;5.44;94.61
79617;BME280;69097;52.132;5.422;2024-02-26T00:05:23;100194.78;;;5.45;94.42
79617;BME280;69097;52.132;5.422;2024-02-26T00:07:49;100194.44;;;5.43;94.61
79617;BME280;69097;52.132;5.422;2024-02-26T00:10:16;100194.03;;;5.41;94.83
79617;BME280;69097;52.132;5.422;2024-02-26T00:12:42;100195.22;;;5.40;94.63
79617;BME280;69097;52.132;5.422;2024-02-26T00:15:09;100196.44;;;5.39;95.10
79617;BME280;69097;52.132;5.422;2024-02-26T00:17:37;100198.00;;;5.40;94.85
79617;BME280;69097;52.132;5.422;2024-02-26T00:20:04;100200.78;;;5.40;95.07
79617;BME280;69097;52.132;5.422;2024-02-26T00:22:35;100210.34;;;5.39;94.98
79617;BME280;69097;52.132;5.422;2024-02-26T00:25:02;100203.22;;;5.38;95.09
79617;BME280;69097;52.132;5.422;2024-02-26T00:27:28;100206.06;;;5.31;95.27
79617;BME280;69097;52.132;5.422;2024-02-26T00:29:55;100207.25;;;5.30;95.43
79617;BME280;69097;52.132;5.422;2024-02-26T00:32:21;100205.31;;;5.27;95.21
79617;BME280;69097;52.132;5.422;2024-02-26T00:34:48;100206.88;;;5.28;95.46
79617;BME280;69097;52.132;5.422;2024-02-26T00:37:14;100200.53;;;5.27;95.72
79617;BME280;69097;52.132;5.422;2024-02-26T00:39:41;100203.75;;;5.26;95.61
79617;BME280;69097;52.132;5.422;2024-02-26T00:42:07;100199.38;;;5.25;95.52
79617;BME280;69097;52.132;5.422;2024-02-26T00:44:34;100208.50;;;5.25;95.45
79617;BME280;69097;52.132;5.422;2024-02-26T00:47:00;100216.47;;;5.23;95.67
79617;BME280;69097;52.132;5.422;2024-02-26T00:49:27;100214.94;;;5.19;95.78
79617;BME280;69097;52.132;5.422;2024-02-26T00:51:53;100213.34;;;5.18;95.30
79617;BME280;69097;52.132;5.422;2024-02-26T00:54:20;100207.78;;;5.18;95.69
79617;BME280;69097;52.132;5.422;2024-02-26T00:56:46;100213.75;;;5.16;95.31
79617;BME280;69097;52.132;5.422;2024-02-26T00:59:13;100207.03;;;5.14;95.65
79617;BME280;69097;52.132;5.422;2024-02-26T01:01:39;100209.81;;;5.14;95.10
79617;BME280;69097;52.132;5.422;2024-02-26T01:04:06;100207.41;;;5.16;95.66
79617;BME280;69097;52.132;5.422;2024-02-26T01:06:32;100208.59;;;5.15;95.63
79617;BME280;69097;52.132;5.422;2024-02-26T01:08:59;100219.34;;;5.13;95.64
79617;BME280;69097;52.132;5.422;2024-02-26T01:11:26;100211.41;;;5.11;95.55
79617;BME280;69097;52.132;5.422;2024-02-26T01:13:52;100212.63;;;5.10;95.56
79617;BME280;69097;52.132;5.422;2024-02-26T01:16:23;100205.47;;;5.09;95.20
79617;BME280;69097;52.132;5.422;2024-02-26T01:18:49;100207.44;;;5.12;95.23
79617;BME280;69097;52.132;5.422;2024-02-26T01:21:16;100202.31;;;5.11;95.17
79617;BME280;69097;52.132;5.422;2024-02-26T01:23:43;100201.09;;;5.12;94.87
79617;BME280;69097;52.132;5.422;2024-02-26T01:26:10;100207.44;;;5.12;95.25
79617;BME280;69097;52.132;5.422;2024-02-26T01:28:37;100203.88;;;5.12;94.99
79617;BME280;69097;52.132;5.422;2024-02-26T01:31:03;100193.16;;;5.10;94.88
79617;BME280;69097;52.132;5.422;2024-02-26T01:33:33;100196.34;;;5.12;95.29
79617;BME280;69097;52.132;5.422;2024-02-26T01:35:59;100196.75;;;5.11;94.83
79617;BME280;69097;52.132;5.422;2024-02-26T01:38:27;100194.34;;;5.09;95.24
79617;BME280;69097;52.132;5.422;2024-02-26T01:40:54;100193.59;;;5.09;95.11
79617;BME280;69097;52.132;5.422;2024-02-26T01:43:20;100191.22;;;5.07;94.59
79617;BME280;69097;52.132;5.422;2024-02-26T01:45:46;100194.41;;;5.06;94.97
79617;BME280;69097;52.132;5.422;2024-02-26T01:48:13;100190.44;;;5.07;94.97
79617;BME280;69097;52.132;5.422;2024-02-26T01:50:40;100193.19;;;5.07;94.96
79617;BME280;69097;52.132;5.422;2024-02-26T01:53:08;100192.81;;;5.04;94.58
79617;BME280;69097;52.132;5.422;2024-02-26T01:55:35;100202.34;;;5.07;94.62
79617;BME280;69097;52.132;5.422;2024-02-26T01:58:02;100202.31;;;5.11;94.60
79617;BME280;69097;52.132;5.422;2024-02-26T02:00:28;100207.06;;;5.10;94.46
79617;BME280;69097;52.132;5.422;2024-02-26T02:02:55;100215.81;;;5.09;94.51
79617;BME280;69097;52.132;5.422;2024-02-26T02:05:22;100211.00;;;5.13;95.04
79617;BME280;69097;52.132;5.422;2024-02-26T02:07:49;100205.81;;;5.15;94.35
79617;BME280;69097;52.132;5.422;2024-02-26T02:10:17;100219.31;;;5.16;94.27
79617;BME280;69097;52.132;5.422;2024-02-26T02:12:52;100224.88;;;5.16;94.30
79617;BME280;69097;52.132;5.422;2024-02-26T02:15:18;100221.31;;;5.16;94.68
79617;BME280;69097;52.132;5.422;2024-02-26T02:17:45;100216.91;;;5.18;94.56
79617;BME280;69097;52.132;5.422;2024-02-26T02:20:16;100218.16;;;5.14;93.78
79617;BME280;69097;52.132;5.422;2024-02-26T02:22:46;100220.97;;;5.10;93.49
79617;BME280;69097;52.132;5.422;2024-02-26T02:25:13;100228.50;;;5.10;93.80
79617;BME280;69097;52.132;5.422;2024-02-26T02:27:40;100229.69;;;5.12;93.69
79617;BME280;69097;52.132;5.422;2024-02-26T02:30:08;100237.22;;;5.12;94.11
79617;BME280;69097;52.132;5.422;2024-02-26T02:32:37;100222.50;;;5.15;93.56
79617;BME280;69097;52.132;5.422;2024-02-26T02:35:06;100223.72;;;5.14;93.65
79617;BME280;69097;52.132;5.422;2024-02-26T02:37:32;100237.63;;;5.14;93.48
79617;BME280;69097;52.132;5.422;2024-02-26T02:39:59;100228.44;;;5.17;93.96
79617;BME280;69097;52.132;5.422;2024-02-26T02:42:26;100234.38;;;5.19;93.99
79617;BME280;69097;52.132;5.422;2024-02-26T02:44:52;100241.13;;;5.18;93.37
79617;BME280;69097;52.132;5.422;2024-02-26T02:47:19;100241.94;;;5.18;93.93
79617;BME280;69097;52.132;5.422;2024-02-26T02:49:46;100251.44;;;5.21;93.77
79617;BME280;69097;52.132;5.422;2024-02-26T02:52:12;100250.63;;;5.24;93.56
79617;BME280;69097;52.132;5.422;2024-02-26T02:54:38;100248.63;;;5.24;93.83
79617;BME280;69097;52.132;5.422;2024-02-26T02:57:08;100251.00;;;5.26;94.22
79617;BME280;69097;52.132;5.422;2024-02-26T02:59:35;100266.47;;;5.27;93.54
79617;BME280;69097;52.132;5.422;2024-02-26T03:02:02;100262.47;;;5.28;93.15
79617;BME280;69097;52.132;5.422;2024-02-26T03:04:28;100258.13;;;5.27;93.59
79617;BME280;69097;52.132;5.422;2024-02-26T03:06:55;100276.03;;;5.26;93.29
79617;BME280;69097;52.132;5.422;2024-02-26T03:09:22;100270.47;;;5.26;93.28
79617;BME280;69097;52.132;5.422;2024-02-26T03:11:49;100272.03;;;5.27;92.63
79617;BME280;69097;52.132;5.422;2024-02-26T03:14:16;100283.19;;;5.23;93.10
79617;BME280;69097;52.132;5.422;2024-02-26T03:16:42;100285.16;;;5.23;92.74
79617;BME280;69097;52.132;5.422;2024-02-26T03:19:09;100291.13;;;5.21;93.49
79617;BME280;69097;52.132;5.422;2024-02-26T03:21:35;100286.00;;;5.20;93.32
79617;BME280;69097;52.132;5.422;2024-02-26T03:24:02;100294.34;;;5.20;93.20
79617;BME280;69097;52.132;5.422;2024-02-26T03:26:28;100299.91;;;5.20;93.66
79617;BME280;69097;52.132;5.422;2024-02-26T03:28:57;100296.72;;;5.18;93.43
79617;BME280;69097;52.132;5.422;2024-02-26T03:31:24;100296.72;;;5.18;92.89
79617;BME280;69097;52.132;5.422;2024-02-26T03:33:50;100301.94;;;5.16;93.43
79617;BME280;69097;52.132;5.422;2024-02-26T03:36:17;100299.91;;;5.16;93.01
79617;BME280;69097;52.132;5.422;2024-02-26T03:38:44;100309.88;;;5.14;93.22
79617;BME280;69097;52.132;5.422;2024-02-26T03:41:10;100303.94;;;5.12;93.36
79617;BME280;69097;52.132;5.422;2024-02-26T03:43:37;100299.19;;;5.12;92.92
79617;BME280;69097;52.132;5.422;2024-02-26T03:46:04;100311.88;;;5.10;93.15
79617;BME280;69097;52.132;5.422;2024-02-26T03:48:33;100310.31;;;5.09;93.21
79617;BME280;69097;52.132;5.422;2024-02-26T03:51:00;100311.88;;;5.10;93.06
79617;BME280;69097;52.132;5.422;2024-02-26T03:53:26;100314.28;;;5.07;93.23
79617;BME280;69097;52.132;5.422;2024-02-26T03:55:54;100309.56;;;5.04;93.33
79617;BME280;69097;52.132;5.422;2024-02-26T03:58:21;100313.53;;;5.03;92.91
79617;BME280;69097;52.132;5.422;2024-02-26T04:00:48;100307.97;;;5.03;93.61
79617;BME280;69097;52.132;5.422;2024-02-26T04:03:14;100311.16;;;5.06;93.67
79617;BME280;69097;52.132;5.422;2024-02-26T04:05:41;100312.31;;;5.04;93.42
79617;BME280;69097;52.132;5.422;2024-02-26T04:08:08;100315.91;;;5.05;93.41
79617;BME280;69097;52.132;5.422;2024-02-26T04:10:35;100309.56;;;5.04;92.99
79617;BME280;69097;52.132;5.422;2024-02-26T04:13:01;100317.50;;;5.02;93.42
79617;BME280;69097;52.132;5.422;2024-02-26T04:15:28;100323.06;;;5.02;93.31
79617;BME280;69097;52.132;5.422;2024-02-26T04:17:55;100325.44;;;5.04;93.30
79617;BME280;69097;52.132;5.422;2024-02-26T04:20:22;100323.84;;;5.03;93.99
79617;BME280;69097;52.132;5.422;2024-02-26T04:22:48;100324.66;;;5.03;93.64
79617;BME280;69097;52.132;5.422;2024-02-26T04:25:15;100334.94;;;5.07;93.42
79617;BME280;69097;52.132;5.422;2024-02-26T04:27:41;100333.31;;;5.09;93.18
79617;BME280;69097;52.132;5.422;2024-02-26T04:30:08;100334.53;;;5.08;93.59
79617;BME280;69097;52.132;5.422;2024-02-26T04:32:35;100336.09;;;5.09;93.54
79617;BME280;69097;52.132;5.422;2024-02-26T04:35:02;100340.91;;;5.09;93.53
79617;BME280;69097;52.132;5.422;2024-02-26T04:37:29;100344.44;;;5.09;93.52
79617;BME280;69097;52.132;5.422;2024-02-26T04:39:58;100339.69;;;5.10;93.50
79617;BME280;69097;52.132;5.422;2024-02-26T04:42:25;100344.44;;;5.09;93.67
79617;BME280;69097;52.132;5.422;2024-02-26T04:44:52;100342.06;;;5.11;93.50
79617;BME280;69097;52.132;5.422;2024-02-26T04:47:18;100342.06;;;5.11;93.06
79617;BME280;69097;52.132;5.422;2024-02-26T04:49:45;100344.84;;;5.07;93.05
79617;BME280;69097;52.132;5.422;2024-02-26T04:52:11;100350.81;;;5.10;93.54
79617;BME280;69097;52.132;5.422;2024-02-26T04:54:38;100350.00;;;5.09;92.98
79617;BME280;69097;52.132;5.422;2024-02-26T04:57:04;100346.03;;;5.10;92.93
79617;BME280;69097;52.132;5.422;2024-02-26T04:59:31;100346.47;;;5.09;92.83
79617;BME280;69097;52.132;5.422;2024-02-26T05:01:57;100355.56;;;5.09;93.10
79617;BME280;69097;52.132;5.422;2024-02-26T05:04:24;100355.56;;;5.09;93.37
79617;BME280;69097;52.132;5.422;2024-02-26T05:06:50;100362.75;;;5.07;93.88
79617;BME280;69097;52.132;5.422;2024-02-26T05:09:17;100364.69;;;5.10;93.37
79617;BME280;69097;52.132;5.422;2024-02-26T05:11:43;100366.66;;;5.13;93.35
79617;BME280;69097;52.132;5.422;2024-02-26T05:14:11;100367.47;;;5.10;93.51
79617;BME280;69097;52.132;5.422;2024-02-26T05:16:38;100365.13;;;5.08;93.95
79617;BME280;69097;52.132;5.422;2024-02-26T05:19:04;100358.75;;;5.07;93.24
79617;BME280;69097;52.132;5.422;2024-02-26T05:21:32;100365.91;;;5.09;93.73
79617;BME280;69097;52.132;5.422;2024-02-26T05:23:58;100369.47;;;5.09;93.61
79617;BME280;69097;52.132;5.422;2024-02-26T05:26:25;100364.69;;;5.10;94.18
79617;BME280;69097;52.132;5.422;2024-02-26T05:28:51;100372.66;;;5.07;93.99
79617;BME280;69097;52.132;5.422;2024-02-26T05:31:18;100371.91;;;5.03;93.90
79617;BME280;69097;52.132;5.422;2024-02-26T05:33:45;100376.66;;;5.03;93.93
79617;BME280;69097;52.132;5.422;2024-02-26T05:36:18;100378.28;;;5.00;93.57
79617;BME280;69097;52.132;5.422;2024-02-26T05:38:45;100377.91;;;4.98;94.25
79617;BME280;69097;52.132;5.422;2024-02-26T05:41:12;100380.69;;;4.98;93.56
79617;BME280;69097;52.132;5.422;2024-02-26T05:43:40;100377.91;;;4.98;94.41
79617;BME280;69097;52.132;5.422;2024-02-26T05:46:06;100385.03;;;4.99;94.28
79617;BME280;69097;52.132;5.422;2024-02-26T05:48:33;100392.19;;;5.00;93.99
79617;BME280;69097;52.132;5.422;2024-02-26T05:50:59;100388.19;;;5.01;93.95
79617;BME280;69097;52.132;5.422;2024-02-26T05:53:26;100382.22;;;5.03;93.73
79617;BME280;69097;52.132;5.422;2024-02-26T05:55:52;100391.78;;;5.02;93.88
79617;BME280;69097;52.132;5.422;2024-02-26T05:58:19;100400.88;;;5.02;94.55
79617;BME280;69097;52.132;5.422;2024-02-26T06:00:45;100392.19;;;5.00;94.42
79617;BME280;69097;52.132;5.422;2024-02-26T06:03:12;100417.19;;;5.00;94.15
79617;BME280;69097;52.132;5.422;2024-02-26T06:05:38;100405.28;;;5.00;94.33
79617;BME280;69097;52.132;5.422;2024-02-26T06:08:05;100408.88;;;4.97;93.89
79617;BME280;69097;52.132;5.422;2024-02-26T06:10:33;100408.47;;;4.95;94.04
79617;BME280;69097;52.132;5.422;2024-02-26T06:12:59;100407.69;;;4.94;94.22
79617;BME280;69097;52.132;5.422;2024-02-26T06:15:26;100408.88;;;4.93;93.98
79617;BME280;69097;52.132;5.422;2024-02-26T06:17:52;100420.41;;;4.95;94.22
79617;BME280;69097;52.132;5.422;2024-02-26T06:20:19;100418.41;;;4.92;94.12
79617;BME280;69097;52.132;5.422;2024-02-26T06:22:45;100424.75;;;4.93;94.21
79617;BME280;69097;52.132;5.422;2024-02-26T06:25:12;100433.91;;;4.93;93.66
79617;BME280;69097;52.132;5.422;2024-02-26T06:27:38;100429.50;;;4.96;93.95
79617;BME280;69097;52.132;5.422;2024-02-26T06:30:05;100429.50;;;4.96;93.71
79617;BME280;69097;52.132;5.422;2024-02-26T06:32:32;100433.88;;;4.97;94.56
79617;BME280;69097;52.132;5.422;2024-02-26T06:34:59;100437.44;;;4.97;94.51
79617;BME280;69097;52.132;5.422;2024-02-26T06:37:25;100440.22;;;4.97;94.27
79617;BME280;69097;52.132;5.422;2024-02-26T06:39:52;100444.97;;;5.00;94.17
79617;BME280;69097;52.132;5.422;2024-02-26T06:42:18;100447.34;;;5.02;94.51
79617;BME280;69097;52.132;5.422;2024-02-26T06:44:45;100449.72;;;5.03;94.68
79617;BME280;69097;52.132;5.422;2024-02-26T06:47:11;100452.91;;;5.02;94.37
79617;BME280;69097;52.132;5.422;2024-02-26T06:49:38;100452.94;;;4.98;94.58
79617;BME280;69097;52.132;5.422;2024-02-26T06:52:05;100457.66;;;5.01;94.55
79617;BME280;69097;52.132;5.422;2024-02-26T06:54:32;100468.00;;;5.01;95.01
79617;BME280;69097;52.132;5.422;2024-02-26T06:56:59;100462.03;;;4.99;94.60
79617;BME280;69097;52.132;5.422;2024-02-26T06:59:26;100473.16;;;4.99;95.23
79617;BME280;69097;52.132;5.422;2024-02-26T07:01:53;100479.09;;;5.01;94.59
79617;BME280;69097;52.132;5.422;2024-02-26T07:04:20;100470.00;;;5.00;94.56
79617;BME280;69097;52.132;5.422;2024-02-26T07:06:47;100481.13;;;5.00;95.23
79617;BME280;69097;52.132;5.422;2024-02-26T07:09:14;100481.13;;;5.00;95.41
79617;BME280;69097;52.132;5.422;2024-02-26T07:11:40;100478.34;;;5.00;95.18
79617;BME280;69097;52.132;5.422;2024-02-26T07:14:09;100489.81;;;4.99;95.22
79617;BME280;69097;52.132;5.422;2024-02-26T07:16:35;100499.34;;;5.01;95.18
79617;BME280;69097;52.132;5.422;2024-02-26T07:19:03;100500.94;;;5.02;94.92
79617;BME280;69097;52.132;5.422;2024-02-26T07:21:29;100508.09;;;5.03;94.95
79617;BME280;69097;52.132;5.422;2024-02-26T07:23:56;100499.75;;;5.03;95.68
79617;BME280;69097;52.132;5.422;2024-02-26T07:26:23;100512.06;;;5.02;95.03
79617;BME280;69097;52.132;5.422;2024-02-26T07:28:55;100515.22;;;5.04;95.29
79617;BME280;69097;52.132;5.422;2024-02-26T07:31:21;100508.84;;;5.04;95.35
79617;BME280;69097;52.132;5.422;2024-02-26T07:33:48;100510.47;;;5.05;94.96
79617;BME280;69097;52.132;5.422;2024-02-26T07:36:14;100511.25;;;5.06;95.65
79617;BME280;69097;52.132;5.422;2024-02-26T07:38:41;100516.03;;;5.05;95.05
79617;BME280;69097;52.132;5.422;2024-02-26T07:41:09;100526.72;;;5.07;95.55
79617;BME280;69097;52.132;5.422;2024-02-26T07:43:36;100516.78;;;5.09;95.34
79617;BME280;69097;52.132;5.422;2024-02-26T07:46:03;100510.44;;;5.09;95.70
79617;BME280;69097;52.132;5.422;2024-02-26T07:48:29;100525.50;;;5.11;95.74
79617;BME280;69097;52.132;5.422;2024-02-26T07:50:57;100523.53;;;5.12;95.62
79617;BME280;69097;52.132;5.422;2024-02-26T07:53:25;100527.53;;;5.11;95.99
79617;BME280;69097;52.132;5.422;2024-02-26T07:55:52;100538.25;;;5.09;96.11
79617;BME280;69097;52.132;5.422;2024-02-26T07:58:18;100540.63;;;5.07;95.57
79617;BME280;69097;52.132;5.422;2024-02-26T08:00:45;100551.34;;;5.08;96.29
79617;BME280;69097;52.132;5.422;2024-02-26T08:03:12;100549.78;;;5.07;96.47
79617;BME280;69097;52.132;5.422;2024-02-26T08:05:42;100544.97;;;5.07;96.29
79617;BME280;69097;52.132;5.422;2024-02-26T08:08:09;100554.53;;;5.10;96.33
79617;BME280;69097;52.132;5.422;2024-02-26T08:10:36;100558.47;;;5.13;96.79
79617;BME280;69097;52.132;5.422;2024-02-26T08:13:02;100560.47;;;5.12;96.80
79617;BME280;69097;52.132;5.422;2024-02-26T08:15:32;100559.66;;;5.12;96.79
79617;BME280;69097;52.132;5.422;2024-02-26T08:18:01;100571.59;;;5.12;96.62
79617;BME280;69097;52.132;5.422;2024-02-26T08:20:31;100574.38;;;5.12;97.10
79617;BME280;69097;52.132;5.422;2024-02-26T08:22:57;100567.59;;;5.13;96.31
79617;BME280;69097;52.132;5.422;2024-02-26T08:25:24;100573.97;;;5.14;96.50
79617;BME280;69097;52.132;5.422;2024-02-26T08:27:50;100576.31;;;5.19;96.91
79617;BME280;69097;52.132;5.422;2024-02-26T08:30:17;100575.91;;;5.20;96.85
79617;BME280;69097;52.132;5.422;2024-02-26T08:32:45;100585.47;;;5.19;97.04
79617;BME280;69097;52.132;5.422;2024-02-26T08:35:16;100583.06;;;5.18;96.54
79617;BME280;69097;52.132;5.422;2024-02-26T08:37:46;100587.44;;;5.19;96.58
79617;BME280;69097;52.132;5.422;2024-02-26T08:40:14;100585.06;;;5.17;96.99
79617;BME280;69097;52.132;5.422;2024-02-26T08:42:40;100592.19;;;5.22;96.98
79617;BME280;69097;52.132;5.422;2024-02-26T08:45:08;100596.16;;;5.24;97.07
79617;BME280;69097;52.132;5.422;2024-02-26T08:47:34;100597.34;;;5.27;97.05
79617;BME280;69097;52.132;5.422;2024-02-26T08:50:01;100601.69;;;5.28;96.67
79617;BME280;69097;52.132;5.422;2024-02-26T08:52:28;100595.38;;;5.24;96.58
79617;BME280;69097;52.132;5.422;2024-02-26T08:54:55;100615.25;;;5.22;96.28
79617;BME280;69097;52.132;5.422;2024-02-26T08:57:22;100620.41;;;5.24;96.83
79617;BME280;69097;52.132;5.422;2024-02-26T08:59:48;100620.41;;;5.20;96.81
79617;BME280;69097;52.132;5.422;2024-02-26T09:02:15;100626.75;;;5.21;96.55
79617;BME280;69097;52.132;5.422;2024-02-26T09:04:41;100630.31;;;5.21;97.16
79617;BME280;69097;52.132;5.422;2024-02-26T09:07:08;100635.47;;;5.23;97.14
79617;BME280;69097;52.132;5.422;2024-02-26T09:09:35;100631.13;;;5.22;96.70
79617;BME280;69097;52.132;5.422;2024-02-26T09:12:02;100633.91;;;5.22;96.87
79617;BME280;69097;52.132;5.422;2024-02-26T09:14:29;100633.50;;;5.20;97.50
79617;BME280;69097;52.132;5.422;2024-02-26T09:16:56;100639.84;;;5.24;97.41
79617;BME280;69097;52.132;5.422;2024-02-26T09:19:23;100642.63;;;5.24;97.47
79617;BME280;69097;52.132;5.422;2024-02-26T09:21:50;100635.88;;;5.25;97.06
79617;BME280;69097;52.132;5.422;2024-02-26T09:24:16;100635.88;;;5.25;97.64
79617;BME280;69097;52.132;5.422;2024-02-26T09:26:43;100648.19;;;5.24;97.38
79617;BME280;69097;52.132;5.422;2024-02-26T09:29:09;100654.94;;;5.26;97.88
79617;BME280;69097;52.132;5.422;2024-02-26T09:31:37;100650.56;;;5.25;97.47
79617;BME280;69097;52.132;5.422;2024-02-26T09:34:03;100658.13;;;5.25;97.39
79617;BME280;69097;52.132;5.422;2024-02-26T09:36:31;100656.13;;;5.22;97.36
79617;BME280;69097;52.132;5.422;2024-02-26T09:38:57;100660.91;;;5.21;97.86
79617;BME280;69097;52.132;5.422;2024-02-26T09:41:30;100672.03;;;5.21;98.14
79617;BME280;69097;52.132;5.422;2024-02-26T09:44:02;100674.41;;;5.23;97.86
79617;BME280;69097;52.132;5.422;2024-02-26T09:46:30;100680.75;;;5.23;98.31
79617;BME280;69097;52.132;5.422;2024-02-26T09:48:56;100673.22;;;5.24;98.18
79617;BME280;69097;52.132;5.422;2024-02-26T09:51:24;100669.22;;;5.25;98.18
79617;BME280;69097;52.132;5.422;2024-02-26T09:53:56;100673.97;;;5.28;98.18
79617;BME280;69097;52.132;5.422;2024-02-26T09:56:26;100681.16;;;5.29;98.72
79617;BME280;69097;52.132;5.422;2024-02-26T09:58:54;100684.34;;;5.27;98.29
79617;BME280;69097;52.132;5.422;2024-02-26T10:01:22;100683.53;;;5.27;98.58
79617;BME280;69097;52.132;5.422;2024-02-26T10:03:55;100692.28;;;5.29;98.34
79617;BME280;69097;52.132;5.422;2024-02-26T10:06:25;100694.66;;;5.27;98.83
79617;BME280;69097;52.132;5.422;2024-02-26T10:08:53;100697.44;;;5.27;98.58
79617;BME280;69097;52.132;5.422;2024-02-26T10:11:20;100693.84;;;5.30;98.47
79617;BME280;69097;52.132;5.422;2024-02-26T10:13:46;100699.41;;;5.30;98.44
79617;BME280;69097;52.132;5.422;2024-02-26T10:16:13;100704.97;;;5.30;98.39
79617;BME280;69097;52.132;5.422;2024-02-26T10:18:49;100706.19;;;5.29;98.68
79617;BME280;69097;52.132;5.422;2024-02-26T10:21:25;100713.31;;;5.23;98.75
79617;BME280;69097;52.132;5.422;2024-02-26T10:23:52;100718.50;;;5.24;99.25
79617;BME280;69097;52.132;5.422;2024-02-26T10:26:19;100723.28;;;5.24;99.53
79617;BME280;69097;52.132;5.422;2024-02-26T10:28:46;100725.66;;;5.25;99.26
79617;BME280;69097;52.132;5.422;2024-02-26T10:31:18;100726.03;;;5.24;99.51
79617;BME280;69097;52.132;5.422;2024-02-26T10:33:45;100734.38;;;5.24;99.15
79617;BME280;69097;52.132;5.422;2024-02-26T10:36:12;100743.50;;;5.28;99.84
79617;BME280;69097;52.132;5.422;2024-02-26T10:38:38;100751.44;;;5.33;99.85
79617;BME280;69097;52.132;5.422;2024-02-26T10:41:13;100748.28;;;5.31;99.67
79617;BME280;69097;52.132;5.422;2024-02-26T10:43:42;100756.63;;;5.31;99.49
79617;BME280;69097;52.132;5.422;2024-02-26T10:46:08;100756.22;;;5.32;100.00
79617;BME280;69097;52.132;5.422;2024-02-26T10:48:36;100758.19;;;5.35;99.80
79617;BME280;69097;52.132;5.422;2024-02-26T10:51:03;100766.94;;;5.37;99.56
79617;BME280;69097;52.132;5.422;2024-02-26T10:53:31;100764.16;;;5.41;99.87
79617;BME280;69097;52.132;5.422;2024-02-26T10:56:04;100768.50;;;5.42;100.00
79617;BME280;69097;52.132;5.422;2024-02-26T10:58:32;100779.63;;;5.42;99.78
79617;BME280;69097;52.132;5.422;2024-02-26T11:00:59;100776.84;;;5.42;99.75
79617;BME280;69097;52.132;5.422;2024-02-26T11:03:26;100782.00;;;5.47;100.00
79617;BME280;69097;52.132;5.422;2024-02-26T11:05:55;100786.78;;;5.50;100.00
79617;BME280;69097;52.132;5.422;2024-02-26T11:08:24;100788.78;;;5.53;100.00
79617;BME280;69097;52.132;5.422;2024-02-26T11:10:53;100795.91;;;5.54;100.00
79617;BME280;69097;52.132;5.422;2024-02-26T11:13:21;100792.72;;;5.55;100.00
79617;BME280;69097;52.132;5.422;2024-02-26T11:15:49;100794.31;;;5.56;100.00
79617;BME280;69097;52.132;5.422;2024-02-26T11:18:19;100801.88;;;5.56;100.00
79617;BME280;69097;52.132;5.422;2024-02-26T11:20:46;100800.28;;;5.58;100.00
79617;BME280;69097;52.132;5.422;2024-02-26T11:23:14;100807.03;;;5.61;100.00
79617;BME280;69097;52.132;5.422;2024-02-26T11:25:42;100803.84;;;5.59;100.00
79617;BME280;69097;52.132;5.422;2024-02-26T11:28:14;100796.31;;;5.63;100.00
79617;BME280;69097;52.132;5.422;2024-02-26T11:30:44;100807.44;;;5.59;100.00
79617;BME280;69097;52.132;5.422;2024-02-26T11:33:13;100810.63;;;5.58;100.00
79617;BME280;69097;52.132;5.422;2024-02-26T11:35:41;100819.34;;;5.56;100.00
79617;BME280;69097;52.132;5.422;2024-02-26T11:38:07;100816.19;;;5.58;100.00
79617;BME280;69097;52.132;5.422;2024-02-26T11:40:38;100813.78;;;5.56;100.00
79617;BME280;69097;52.132;5.422;2024-02-26T11:43:08;100819.34;;;5.56;100.00
79617;BME280;69097;52.132;5.422;2024-02-26T11:45:47;100821.75;;;5.58;100.00
79617;BME280;69097;52.132;5.422;2024-02-26T11:48:19;100823.31;;;5.59;100.00
79617;BME280;69097;52.132;5.422;2024-02-26T11:50:49;100831.28;;;5.57;100.00
79617;BME280;69097;52.132;5.422;2024-02-26T11:53:23;100828.50;;;5.53;100.00
79617;BME280;69097;52.132;5.422;2024-02-26T11:58:41;100839.63;;;5.57;100.00
79617;BME280;69097;52.132;5.422;2024-02-26T12:01:46;100847.97;;;5.60;100.00
79617;BME280;69097;52.132;5.422;2024-02-26T12:04:22;100843.19;;;5.64;100.00
79617;BME280;69097;52.132;5.422;2024-02-26T12:06:56;100847.16;;;5.67;100.00
79617;BME280;69097;52.132;5.422;2024-02-26T12:09:37;100852.31;;;5.72;100.00
79617;BME280;69097;52.132;5.422;2024-02-26T12:12:09;100850.34;;;5.69;100.00
79617;BME280;69097;52.132;5.422;2024-02-26T12:14:56;100855.09;;;5.65;100.00
79617;BME280;69097;52.132;5.422;2024-02-26T12:17:24;100872.19;;;5.67;100.00
79617;BME280;69097;52.132;5.422;2024-02-26T12:19:52;100867.44;;;5.67;100.00
79617;BME280;69097;52.132;5.422;2024-02-26T12:22:20;100863.44;;;5.65;99.98
79617;BME280;69097;52.132;5.422;2024-02-26T12:24:47;100880.16;;;5.65;100.00
79617;BME280;69097;52.132;5.422;2024-02-26T12:27:13;100871.03;;;5.64;100.00
79617;BME280;69097;52.132;5.422;2024-02-26T12:29:41;100882.94;;;5.65;100.00
79617;BME280;69097;52.132;5.422;2024-02-26T12:32:08;100879.78;;;5.63;100.00
79617;BME280;69097;52.132;5.422;2024-02-26T12:34:35;100880.53;;;5.67;100.00
79617;BME280;69097;52.132;5.422;2024-02-26T12:37:02;100877.00;;;5.66;99.98
79617;BME280;69097;52.132;5.422;2024-02-26T12:39:28;100877.75;;;5.67;100.00
79617;BME280;69097;52.132;5.422;2024-02-26T12:41:57;100879.75;;;5.70;100.00
79617;BME280;69097;52.132;5.422;2024-02-26T12:44:26;100894.84;;;5.72;100.00
79617;BME280;69097;52.132;5.422;2024-02-26T12:47:00;100892.47;;;5.71;100.00
79617;BME280;69097;52.132;5.422;2024-02-26T12:49:29;100894.06;;;5.75;100.00
79617;BME280;69097;52.132;5.422;2024-02-26T12:51:56;100896.44;;;5.80;100.00
79617;BME280;69097;52.132;5.422;2024-02-26T12:54:30;100894.44;;;5.81;100.00
79617;BME280;69097;52.132;5.422;2024-02-26T12:57:00;100902.41;;;5.79;100.00
79617;BME280;69097;52.132;5.422;2024-02-26T12:59:29;100906.38;;;5.78;99.83
79617;BME280;69097;52.132;5.422;2024-02-26T13:01:56;100906.38;;;5.78;99.64